sensor_id;sensor_type;location;lat;lon;timestamp;temperature;humidity
18456;DHT22;9357;49.900;8.208;2023-05-10T00:01:03;14.10;99.90
18456;DHT22;9357;49.900;8.208;2023-05-10T00:02:36;14.10;99.90
18456;DHT22;9357;49.900;8.208;2023-05-10T00:04:09;14.10;99.90
18456;DHT22;9357;49.900;8.208;2023-05-10T00:05:42;14.10;99.90
18456;DHT22;9357;49.900;8.208;2023-05-10T00:07:16;14.20;99.90
18456;DHT22;9357;49.900;8.208;2023-05-10T00:08:49;14.20;99.90
18456;DHT22;9357;49.900;8.208;2023-05-10T00:10:22;14.20;99.90
18456;DHT22;9357;49.900;8.208;2023-05-10T00:11:55;14.20;99.90
18456;DHT22;9357;49.900;8.208;2023-05-10T00:13:27;14.20;99.90
18456;DHT22;9357;49.900;8.208;2023-05-10T00:14:59;14.20;99.90
18456;DHT22;9357;49.900;8.208;2023-05-10T00:16:32;14.20;99.90
18456;DHT22;9357;49.900;8.208;2023-05-10T00:18:05;14.20;99.90
18456;DHT22;9357;49.900;8.208;2023-05-10T00:19:37;14.20;99.90
18456;DHT22;9357;49.900;8.208;2023-05-10T00:21:09;14.10;99.90
18456;DHT22;9357;49.900;8.208;2023-05-10T00:22:44;14.20;99.90
18456;DHT22;9357;49.900;8.208;2023-05-10T00:24:16;14.10;99.90
18456;DHT22;9357;49.900;8.208;2023-05-10T00:25:49;14.10;99.90
18456;DHT22;9357;49.900;8.208;2023-05-10T00:27:21;14.10;99.90
18456;DHT22;9357;49.900;8.208;2023-05-10T00:28:53;14.10;99.90
18456;DHT22;9357;49.900;8.208;2023-05-10T00:30:27;14.20;99.90
18456;DHT22;9357;49.900;8.208;2023-05-10T00:31:59;14.20;99.90
18456;DHT22;9357;49.900;8.208;2023-05-10T00:33:32;14.10;99.90
18456;DHT22;9357;49.900;8.208;2023-05-10T00:35:04;14.20;99.90
18456;DHT22;9357;49.900;8.208;2023-05-10T00:36:37;14.20;99.90
18456;DHT22;9357;49.900;8.208;2023-05-10T00:38:11;14.20;99.90
18456;DHT22;9357;49.900;8.208;2023-05-10T00:39:43;14.20;99.90
18456;DHT22;9357;49.900;8.208;2023-05-10T00:41:16;14.10;99.90
18456;DHT22;9357;49.900;8.208;2023-05-10T00:42:48;14.10;99.90
18456;DHT22;9357;49.900;8.208;2023-05-10T00:44:21;14.10;99.90
18456;DHT22;9357;49.900;8.208;2023-05-10T00:45:53;14.10;99.90
18456;DHT22;9357;49.900;8.208;2023-05-10T00:47:26;14.10;99.90
18456;DHT22;9357;49.900;8.208;2023-05-10T00:49:00;14.10;99.90
18456;DHT22;9357;49.900;8.208;2023-05-10T00:50:33;14.10;99.90
18456;DHT22;9357;49.900;8.208;2023-05-10T00:52:06;14.10;99.90
18456;DHT22;9357;49.900;8.208;2023-05-10T00:53:39;14.10;99.90
18456;DHT22;9357;49.900;8.208;2023-05-10T00:55:12;14.20;99.90
18456;DHT22;9357;49.900;8.208;2023-05-10T00:56:45;14.20;99.90
18456;DHT22;9357;49.900;8.208;2023-05-10T00:58:20;14.20;99.90
18456;DHT22;9357;49.900;8.208;2023-05-10T00:59:54;14.10;99.90
18456;DHT22;9357;49.900;8.208;2023-05-10T01:01:27;14.10;99.90
18456;DHT22;9357;49.900;8.208;2023-05-10T01:03:01;14.10;99.90
18456;DHT22;9357;49.900;8.208;2023-05-10T01:04:33;14.10;99.90
18456;DHT22;9357;49.900;8.208;2023-05-10T01:06:07;14.10;99.90
18456;DHT22;9357;49.900;8.208;2023-05-10T01:07:41;14.10;99.90
18456;DHT22;9357;49.900;8.208;2023-05-10T01:09:15;14.10;99.90
18456;DHT22;9357;49.900;8.208;2023-05-10T01:10:48;14.00;99.90
18456;DHT22;9357;49.900;8.208;2023-05-10T01:12:21;14.00;99.90
18456;DHT22;9357;49.900;8.208;2023-05-10T01:13:56;14.00;99.90
18456;DHT22;9357;49.900;8.208;2023-05-10T01:15:30;14.00;99.90
18456;DHT22;9357;49.900;8.208;2023-05-10T01:17:04;14.00;99.90
18456;DHT22;9357;49.900;8.208;2023-05-10T01:18:38;14.00;99.90
18456;DHT22;9357;49.900;8.208;2023-05-10T01:20:12;14.00;99.90
18456;DHT22;9357;49.900;8.208;2023-05-10T01:21:49;14.00;99.90
18456;DHT22;9357;49.900;8.208;2023-05-10T01:23:35;14.00;99.90
18456;DHT22;9357;49.900;8.208;2023-05-10T01:25:37;14.00;99.90
18456;DHT22;9357;49.900;8.208;2023-05-10T01:27:54;14.00;99.90
18456;DHT22;9357;49.900;8.208;2023-05-10T01:29:58;14.00;99.90
18456;DHT22;9357;49.900;8.208;2023-05-10T01:32:19;14.00;99.90
18456;DHT22;9357;49.900;8.208;2023-05-10T01:33:56;14.00;99.90
18456;DHT22;9357;49.900;8.208;2023-05-10T01:35:34;14.00;99.90
18456;DHT22;9357;49.900;8.208;2023-05-10T01:37:13;14.00;99.90
18456;DHT22;9357;49.900;8.208;2023-05-10T01:38:51;13.90;99.90
18456;DHT22;9357;49.900;8.208;2023-05-10T01:40:30;14.10;99.90
18456;DHT22;9357;49.900;8.208;2023-05-10T01:42:08;14.00;99.90
18456;DHT22;9357;49.900;8.208;2023-05-10T01:43:48;14.00;99.90
18456;DHT22;9357;49.900;8.208;2023-05-10T01:45:30;14.00;99.90
18456;DHT22;9357;49.900;8.208;2023-05-10T01:47:05;14.00;99.90
18456;DHT22;9357;49.900;8.208;2023-05-10T01:48:44;14.00;99.90
18456;DHT22;9357;49.900;8.208;2023-05-10T01:50:21;14.00;99.90
18456;DHT22;9357;49.900;8.208;2023-05-10T01:52:02;14.00;99.90
18456;DHT22;9357;49.900;8.208;2023-05-10T01:53:37;14.00;99.90
18456;DHT22;9357;49.900;8.208;2023-05-10T01:55:14;13.90;99.90
18456;DHT22;9357;49.900;8.208;2023-05-10T01:57:01;14.00;99.90
18456;DHT22;9357;49.900;8.208;2023-05-10T01:58:36;14.00;99.90
18456;DHT22;9357;49.900;8.208;2023-05-10T02:00:13;13.90;99.90
18456;DHT22;9357;49.900;8.208;2023-05-10T02:01:47;13.90;99.90
18456;DHT22;9357;49.900;8.208;2023-05-10T02:03:22;13.90;99.90
18456;DHT22;9357;49.900;8.208;2023-05-10T02:04:57;13.90;99.90
18456;DHT22;9357;49.900;8.208;2023-05-10T02:06:30;13.90;99.90
18456;DHT22;9357;49.900;8.208;2023-05-10T02:08:07;13.90;99.90
18456;DHT22;9357;49.900;8.208;2023-05-10T02:09:40;13.90;99.90
18456;DHT22;9357;49.900;8.208;2023-05-10T02:11:19;13.90;99.90
18456;DHT22;9357;49.900;8.208;2023-05-10T02:12:53;13.90;99.90
18456;DHT22;9357;49.900;8.208;2023-05-10T02:14:27;13.90;99.90
18456;DHT22;9357;49.900;8.208;2023-05-10T02:16:01;13.90;99.90
18456;DHT22;9357;49.900;8.208;2023-05-10T02:17:37;13.90;99.90
18456;DHT22;9357;49.900;8.208;2023-05-10T02:19:11;13.90;99.90
18456;DHT22;9357;49.900;8.208;2023-05-10T02:20:46;13.90;99.90
18456;DHT22;9357;49.900;8.208;2023-05-10T02:22:20;13.90;99.90
18456;DHT22;9357;49.900;8.208;2023-05-10T02:23:55;13.90;99.90
18456;DHT22;9357;49.900;8.208;2023-05-10T02:25:28;13.90;99.90
18456;DHT22;9357;49.900;8.208;2023-05-10T02:27:03;13.90;99.90
18456;DHT22;9357;49.900;8.208;2023-05-10T02:28:36;13.90;99.90
18456;DHT22;9357;49.900;8.208;2023-05-10T02:30:10;13.90;99.90
18456;DHT22;9357;49.900;8.208;2023-05-10T02:31:43;13.90;99.90
18456;DHT22;9357;49.900;8.208;2023-05-10T02:33:17;13.90;99.90
18456;DHT22;9357;49.900;8.208;2023-05-10T02:34:51;13.90;99.90
18456;DHT22;9357;49.900;8.208;2023-05-10T02:36:26;13.90;99.90
18456;DHT22;9357;49.900;8.208;2023-05-10T02:38:00;13.90;99.90
18456;DHT22;9357;49.900;8.208;2023-05-10T02:39:34;13.90;99.90
18456;DHT22;9357;49.900;8.208;2023-05-10T02:41:08;13.90;99.90
18456;DHT22;9357;49.900;8.208;2023-05-10T02:42:43;13.90;99.90
18456;DHT22;9357;49.900;8.208;2023-05-10T02:44:18;13.90;99.90
18456;DHT22;9357;49.900;8.208;2023-05-10T02:45:51;14.00;99.90
18456;DHT22;9357;49.900;8.208;2023-05-10T02:47:24;14.00;99.90
18456;DHT22;9357;49.900;8.208;2023-05-10T02:48:57;14.00;99.90
18456;DHT22;9357;49.900;8.208;2023-05-10T02:50:32;14.00;99.90
18456;DHT22;9357;49.900;8.208;2023-05-10T02:52:07;14.00;99.90
18456;DHT22;9357;49.900;8.208;2023-05-10T02:53:44;14.00;99.90
18456;DHT22;9357;49.900;8.208;2023-05-10T02:55:21;14.00;99.90
18456;DHT22;9357;49.900;8.208;2023-05-10T02:56:57;14.00;99.90
18456;DHT22;9357;49.900;8.208;2023-05-10T02:58:32;13.90;99.90
18456;DHT22;9357;49.900;8.208;2023-05-10T03:00:06;14.00;99.90
18456;DHT22;9357;49.900;8.208;2023-05-10T03:01:38;13.90;99.90
18456;DHT22;9357;49.900;8.208;2023-05-10T03:03:11;13.90;99.90
18456;DHT22;9357;49.900;8.208;2023-05-10T03:04:44;13.90;99.90
18456;DHT22;9357;49.900;8.208;2023-05-10T03:06:16;13.90;99.90
18456;DHT22;9357;49.900;8.208;2023-05-10T03:07:50;13.90;99.90
18456;DHT22;9357;49.900;8.208;2023-05-10T03:09:23;13.90;99.90
18456;DHT22;9357;49.900;8.208;2023-05-10T03:11:08;13.90;99.90
18456;DHT22;9357;49.900;8.208;2023-05-10T03:12:51;13.90;99.90
18456;DHT22;9357;49.900;8.208;2023-05-10T03:14:34;13.90;99.90
18456;DHT22;9357;49.900;8.208;2023-05-10T03:16:13;13.90;99.90
18456;DHT22;9357;49.900;8.208;2023-05-10T03:17:52;13.90;99.90
18456;DHT22;9357;49.900;8.208;2023-05-10T03:19:32;13.90;99.90
18456;DHT22;9357;49.900;8.208;2023-05-10T03:21:08;13.90;99.90
18456;DHT22;9357;49.900;8.208;2023-05-10T03:22:47;13.90;99.90
18456;DHT22;9357;49.900;8.208;2023-05-10T03:24:23;13.90;99.90
18456;DHT22;9357;49.900;8.208;2023-05-10T03:26:00;13.90;99.90
18456;DHT22;9357;49.900;8.208;2023-05-10T03:27:34;13.90;99.90
18456;DHT22;9357;49.900;8.208;2023-05-10T03:29:08;13.90;99.90
18456;DHT22;9357;49.900;8.208;2023-05-10T03:30:41;13.90;99.90
18456;DHT22;9357;49.900;8.208;2023-05-10T03:32:15;13.90;99.90
18456;DHT22;9357;49.900;8.208;2023-05-10T03:33:47;13.90;99.90
18456;DHT22;9357;49.900;8.208;2023-05-10T03:35:20;13.90;99.90
18456;DHT22;9357;49.900;8.208;2023-05-10T03:36:53;13.90;99.90
18456;DHT22;9357;49.900;8.208;2023-05-10T03:38:26;13.90;99.90
18456;DHT22;9357;49.900;8.208;2023-05-10T03:40:03;13.90;99.90
18456;DHT22;9357;49.900;8.208;2023-05-10T03:41:36;14.00;99.90
18456;DHT22;9357;49.900;8.208;2023-05-10T03:43:08;13.90;99.90
18456;DHT22;9357;49.900;8.208;2023-05-10T03:44:41;13.90;99.90
18456;DHT22;9357;49.900;8.208;2023-05-10T03:46:14;13.90;99.90
18456;DHT22;9357;49.900;8.208;2023-05-10T03:47:46;13.90;99.90
18456;DHT22;9357;49.900;8.208;2023-05-10T03:49:18;13.90;99.90
18456;DHT22;9357;49.900;8.208;2023-05-10T03:50:50;13.90;99.90
18456;DHT22;9357;49.900;8.208;2023-05-10T03:52:23;13.90;99.90
18456;DHT22;9357;49.900;8.208;2023-05-10T03:53:55;13.90;99.90
18456;DHT22;9357;49.900;8.208;2023-05-10T03:55:29;13.90;99.90
18456;DHT22;9357;49.900;8.208;2023-05-10T03:57:05;13.90;99.90
18456;DHT22;9357;49.900;8.208;2023-05-10T03:58:37;13.90;99.90
18456;DHT22;9357;49.900;8.208;2023-05-10T04:00:11;13.90;99.90
18456;DHT22;9357;49.900;8.208;2023-05-10T04:01:43;13.90;99.90
18456;DHT22;9357;49.900;8.208;2023-05-10T04:03:15;13.90;99.90
18456;DHT22;9357;49.900;8.208;2023-05-10T04:04:47;13.90;99.90
18456;DHT22;9357;49.900;8.208;2023-05-10T04:06:20;13.90;99.90
18456;DHT22;9357;49.900;8.208;2023-05-10T04:07:52;13.90;99.90
18456;DHT22;9357;49.900;8.208;2023-05-10T04:09:25;13.90;99.90
18456;DHT22;9357;49.900;8.208;2023-05-10T04:11:06;13.90;99.90
18456;DHT22;9357;49.900;8.208;2023-05-10T04:12:39;13.90;99.90
18456;DHT22;9357;49.900;8.208;2023-05-10T04:14:12;13.90;99.90
18456;DHT22;9357;49.900;8.208;2023-05-10T04:15:44;13.90;99.90
18456;DHT22;9357;49.900;8.208;2023-05-10T04:17:17;13.90;99.90
18456;DHT22;9357;49.900;8.208;2023-05-10T04:18:49;13.90;99.90
18456;DHT22;9357;49.900;8.208;2023-05-10T04:20:22;13.90;99.90
18456;DHT22;9357;49.900;8.208;2023-05-10T04:21:55;13.90;99.90
18456;DHT22;9357;49.900;8.208;2023-05-10T04:23:27;13.90;99.90
18456;DHT22;9357;49.900;8.208;2023-05-10T04:25:00;13.90;99.90
18456;DHT22;9357;49.900;8.208;2023-05-10T04:26:34;13.90;99.90
18456;DHT22;9357;49.900;8.208;2023-05-10T04:28:07;13.90;99.90
18456;DHT22;9357;49.900;8.208;2023-05-10T04:29:39;13.90;99.90
18456;DHT22;9357;49.900;8.208;2023-05-10T04:31:12;13.90;99.90
18456;DHT22;9357;49.900;8.208;2023-05-10T04:32:44;13.90;99.90
18456;DHT22;9357;49.900;8.208;2023-05-10T04:34:17;13.90;99.90
18456;DHT22;9357;49.900;8.208;2023-05-10T04:35:50;13.90;99.90
18456;DHT22;9357;49.900;8.208;2023-05-10T04:37:23;13.80;99.90
18456;DHT22;9357;49.900;8.208;2023-05-10T04:38:55;13.80;99.90
18456;DHT22;9357;49.900;8.208;2023-05-10T04:40:27;13.80;99.90
18456;DHT22;9357;49.900;8.208;2023-05-10T04:42:02;13.80;99.90
18456;DHT22;9357;49.900;8.208;2023-05-10T04:43:37;13.80;99.90
18456;DHT22;9357;49.900;8.208;2023-05-10T04:45:10;13.80;99.90
18456;DHT22;9357;49.900;8.208;2023-05-10T04:46:43;13.80;99.90
18456;DHT22;9357;49.900;8.208;2023-05-10T04:48:16;13.80;99.90
18456;DHT22;9357;49.900;8.208;2023-05-10T04:49:47;13.70;99.90
18456;DHT22;9357;49.900;8.208;2023-05-10T04:51:20;13.70;99.90
18456;DHT22;9357;49.900;8.208;2023-05-10T04:52:53;13.70;99.90
18456;DHT22;9357;49.900;8.208;2023-05-10T04:54:25;13.70;99.90
18456;DHT22;9357;49.900;8.208;2023-05-10T04:55:58;13.70;99.90
18456;DHT22;9357;49.900;8.208;2023-05-10T04:57:31;13.70;99.90
18456;DHT22;9357;49.900;8.208;2023-05-10T04:59:04;13.70;99.90
18456;DHT22;9357;49.900;8.208;2023-05-10T05:00:37;13.70;99.90
18456;DHT22;9357;49.900;8.208;2023-05-10T05:02:09;13.70;99.90
18456;DHT22;9357;49.900;8.208;2023-05-10T05:03:42;13.70;99.90
18456;DHT22;9357;49.900;8.208;2023-05-10T05:05:15;13.70;99.90
18456;DHT22;9357;49.900;8.208;2023-05-10T05:06:48;13.60;99.90
18456;DHT22;9357;49.900;8.208;2023-05-10T05:08:24;13.60;99.90
18456;DHT22;9357;49.900;8.208;2023-05-10T05:09:57;13.60;99.90
18456;DHT22;9357;49.900;8.208;2023-05-10T05:11:30;13.60;99.90
18456;DHT22;9357;49.900;8.208;2023-05-10T05:13:04;13.60;99.90
18456;DHT22;9357;49.900;8.208;2023-05-10T05:14:37;13.60;99.90
18456;DHT22;9357;49.900;8.208;2023-05-10T05:16:09;13.50;99.90
18456;DHT22;9357;49.900;8.208;2023-05-10T05:17:42;13.60;99.90
18456;DHT22;9357;49.900;8.208;2023-05-10T05:19:15;13.60;99.90
18456;DHT22;9357;49.900;8.208;2023-05-10T05:20:48;13.60;99.90
18456;DHT22;9357;49.900;8.208;2023-05-10T05:22:21;13.60;99.90
18456;DHT22;9357;49.900;8.208;2023-05-10T05:23:58;13.60;99.90
18456;DHT22;9357;49.900;8.208;2023-05-10T05:25:31;13.60;99.90
18456;DHT22;9357;49.900;8.208;2023-05-10T05:27:04;13.60;99.90
18456;DHT22;9357;49.900;8.208;2023-05-10T05:28:38;13.60;99.90
18456;DHT22;9357;49.900;8.208;2023-05-10T05:30:11;13.60;99.90
18456;DHT22;9357;49.900;8.208;2023-05-10T05:31:44;13.60;99.90
18456;DHT22;9357;49.900;8.208;2023-05-10T05:33:17;13.70;99.90
18456;DHT22;9357;49.900;8.208;2023-05-10T05:34:50;13.70;99.90
18456;DHT22;9357;49.900;8.208;2023-05-10T05:36:23;13.70;99.90
18456;DHT22;9357;49.900;8.208;2023-05-10T05:37:55;13.70;99.90
18456;DHT22;9357;49.900;8.208;2023-05-10T05:39:28;13.80;99.90
18456;DHT22;9357;49.900;8.208;2023-05-10T05:41:01;13.80;99.90
18456;DHT22;9357;49.900;8.208;2023-05-10T05:42:34;13.80;99.90
18456;DHT22;9357;49.900;8.208;2023-05-10T05:44:08;13.80;99.90
18456;DHT22;9357;49.900;8.208;2023-05-10T05:45:41;13.80;99.90
18456;DHT22;9357;49.900;8.208;2023-05-10T05:47:14;13.90;99.90
18456;DHT22;9357;49.900;8.208;2023-05-10T05:48:47;13.90;99.90
18456;DHT22;9357;49.900;8.208;2023-05-10T05:50:19;13.90;99.90
18456;DHT22;9357;49.900;8.208;2023-05-10T05:51:52;14.00;99.90
18456;DHT22;9357;49.900;8.208;2023-05-10T05:53:25;14.00;99.90
18456;DHT22;9357;49.900;8.208;2023-05-10T05:54:58;14.00;99.90
18456;DHT22;9357;49.900;8.208;2023-05-10T05:56:30;14.00;99.90
18456;DHT22;9357;49.900;8.208;2023-05-10T05:58:03;14.10;99.90
18456;DHT22;9357;49.900;8.208;2023-05-10T05:59:37;14.10;99.90
18456;DHT22;9357;49.900;8.208;2023-05-10T06:01:13;14.10;99.90
18456;DHT22;9357;49.900;8.208;2023-05-10T06:02:46;14.10;99.90
18456;DHT22;9357;49.900;8.208;2023-05-10T06:04:19;14.20;99.90
18456;DHT22;9357;49.900;8.208;2023-05-10T06:05:52;14.20;99.90
18456;DHT22;9357;49.900;8.208;2023-05-10T06:07:25;14.20;99.90
18456;DHT22;9357;49.900;8.208;2023-05-10T06:08:58;14.20;99.90
18456;DHT22;9357;49.900;8.208;2023-05-10T06:10:30;14.30;99.90
18456;DHT22;9357;49.900;8.208;2023-05-10T06:12:03;14.30;99.90
18456;DHT22;9357;49.900;8.208;2023-05-10T06:13:36;14.40;99.90
18456;DHT22;9357;49.900;8.208;2023-05-10T06:15:11;14.40;99.90
18456;DHT22;9357;49.900;8.208;2023-05-10T06:16:44;14.50;99.90
18456;DHT22;9357;49.900;8.208;2023-05-10T06:18:17;14.50;99.90
18456;DHT22;9357;49.900;8.208;2023-05-10T06:19:49;14.60;99.90
18456;DHT22;9357;49.900;8.208;2023-05-10T06:21:22;14.70;99.90
18456;DHT22;9357;49.900;8.208;2023-05-10T06:22:55;14.80;99.90
18456;DHT22;9357;49.900;8.208;2023-05-10T06:24:27;14.80;99.90
18456;DHT22;9357;49.900;8.208;2023-05-10T06:26:00;14.90;99.90
18456;DHT22;9357;49.900;8.208;2023-05-10T06:27:33;15.10;99.90
18456;DHT22;9357;49.900;8.208;2023-05-10T06:29:06;15.20;99.90
18456;DHT22;9357;49.900;8.208;2023-05-10T06:30:40;15.40;99.90
18456;DHT22;9357;49.900;8.208;2023-05-10T06:32:13;15.50;99.90
18456;DHT22;9357;49.900;8.208;2023-05-10T06:33:45;15.60;99.90
18456;DHT22;9357;49.900;8.208;2023-05-10T06:35:18;15.70;99.90
18456;DHT22;9357;49.900;8.208;2023-05-10T06:36:51;15.80;99.90
18456;DHT22;9357;49.900;8.208;2023-05-10T06:38:24;15.80;99.90
18456;DHT22;9357;49.900;8.208;2023-05-10T06:39:57;15.90;99.90
18456;DHT22;9357;49.900;8.208;2023-05-10T06:41:29;15.90;99.90
18456;DHT22;9357;49.900;8.208;2023-05-10T06:43:02;16.00;99.90
18456;DHT22;9357;49.900;8.208;2023-05-10T06:44:35;16.00;99.90
18456;DHT22;9357;49.900;8.208;2023-05-10T06:46:09;16.10;99.90
18456;DHT22;9357;49.900;8.208;2023-05-10T06:47:42;16.10;99.90
18456;DHT22;9357;49.900;8.208;2023-05-10T06:49:15;16.30;99.90
18456;DHT22;9357;49.900;8.208;2023-05-10T06:50:47;16.30;99.90
18456;DHT22;9357;49.900;8.208;2023-05-10T06:52:20;16.40;99.90
18456;DHT22;9357;49.900;8.208;2023-05-10T06:53:53;16.40;99.90
18456;DHT22;9357;49.900;8.208;2023-05-10T06:55:25;16.40;99.90
18456;DHT22;9357;49.900;8.208;2023-05-10T06:56:58;16.30;99.90
18456;DHT22;9357;49.900;8.208;2023-05-10T06:58:34;16.30;99.90
18456;DHT22;9357;49.900;8.208;2023-05-10T07:00:07;16.30;99.90
18456;DHT22;9357;49.900;8.208;2023-05-10T07:01:42;16.30;99.90
18456;DHT22;9357;49.900;8.208;2023-05-10T07:03:15;16.30;99.90
18456;DHT22;9357;49.900;8.208;2023-05-10T07:04:48;16.30;99.90
18456;DHT22;9357;49.900;8.208;2023-05-10T07:06:21;16.40;99.90
18456;DHT22;9357;49.900;8.208;2023-05-10T07:08:04;16.40;99.90
18456;DHT22;9357;49.900;8.208;2023-05-10T07:09:36;16.60;99.90
18456;DHT22;9357;49.900;8.208;2023-05-10T07:11:09;16.60;99.90
18456;DHT22;9357;49.900;8.208;2023-05-10T07:12:42;16.70;99.90
18456;DHT22;9357;49.900;8.208;2023-05-10T07:14:15;16.70;99.90
18456;DHT22;9357;49.900;8.208;2023-05-10T07:15:48;16.60;99.90
18456;DHT22;9357;49.900;8.208;2023-05-10T07:17:22;16.60;99.90
18456;DHT22;9357;49.900;8.208;2023-05-10T07:18:55;16.60;99.90
18456;DHT22;9357;49.900;8.208;2023-05-10T07:20:28;16.60;99.90
18456;DHT22;9357;49.900;8.208;2023-05-10T07:22:01;16.60;99.90
18456;DHT22;9357;49.900;8.208;2023-05-10T07:23:33;16.60;99.90
18456;DHT22;9357;49.900;8.208;2023-05-10T07:25:07;16.60;99.90
18456;DHT22;9357;49.900;8.208;2023-05-10T07:26:40;16.50;99.90
18456;DHT22;9357;49.900;8.208;2023-05-10T07:28:13;16.50;99.90
18456;DHT22;9357;49.900;8.208;2023-05-10T07:29:45;16.50;99.90
18456;DHT22;9357;49.900;8.208;2023-05-10T07:31:18;16.40;99.90
18456;DHT22;9357;49.900;8.208;2023-05-10T07:32:52;16.40;99.90
18456;DHT22;9357;49.900;8.208;2023-05-10T07:34:25;16.40;99.90
18456;DHT22;9357;49.900;8.208;2023-05-10T07:35:58;16.50;99.90
18456;DHT22;9357;49.900;8.208;2023-05-10T07:37:30;16.50;99.90
18456;DHT22;9357;49.900;8.208;2023-05-10T07:39:03;16.50;99.90
18456;DHT22;9357;49.900;8.208;2023-05-10T07:40:37;16.50;99.90
18456;DHT22;9357;49.900;8.208;2023-05-10T07:42:10;16.60;99.90
18456;DHT22;9357;49.900;8.208;2023-05-10T07:43:42;16.60;99.90
18456;DHT22;9357;49.900;8.208;2023-05-10T07:45:15;16.60;99.90
18456;DHT22;9357;49.900;8.208;2023-05-10T07:46:48;16.50;99.90
18456;DHT22;9357;49.900;8.208;2023-05-10T07:48:23;16.60;99.90
18456;DHT22;9357;49.900;8.208;2023-05-10T07:49:55;16.60;99.90
18456;DHT22;9357;49.900;8.208;2023-05-10T07:51:28;16.60;99.90
18456;DHT22;9357;49.900;8.208;2023-05-10T07:53:01;16.60;99.90
18456;DHT22;9357;49.900;8.208;2023-05-10T07:54:33;16.60;99.90
18456;DHT22;9357;49.900;8.208;2023-05-10T07:56:21;16.50;99.90
18456;DHT22;9357;49.900;8.208;2023-05-10T07:57:54;16.50;99.90
18456;DHT22;9357;49.900;8.208;2023-05-10T07:59:26;16.50;99.90
18456;DHT22;9357;49.900;8.208;2023-05-10T08:00:59;16.50;99.90
18456;DHT22;9357;49.900;8.208;2023-05-10T08:02:32;16.50;99.90
18456;DHT22;9357;49.900;8.208;2023-05-10T08:04:06;16.50;99.90
18456;DHT22;9357;49.900;8.208;2023-05-10T08:05:40;16.50;99.90
18456;DHT22;9357;49.900;8.208;2023-05-10T08:07:13;16.60;99.90
18456;DHT22;9357;49.900;8.208;2023-05-10T08:08:46;16.60;99.90
18456;DHT22;9357;49.900;8.208;2023-05-10T08:10:20;16.70;99.90
18456;DHT22;9357;49.900;8.208;2023-05-10T08:11:53;16.80;99.90
18456;DHT22;9357;49.900;8.208;2023-05-10T08:13:26;16.80;99.90
18456;DHT22;9357;49.900;8.208;2023-05-10T08:14:59;16.90;99.90
18456;DHT22;9357;49.900;8.208;2023-05-10T08:16:32;16.90;99.90
18456;DHT22;9357;49.900;8.208;2023-05-10T08:18:05;17.00;99.90
18456;DHT22;9357;49.900;8.208;2023-05-10T08:19:39;17.00;99.90
18456;DHT22;9357;49.900;8.208;2023-05-10T08:21:13;17.00;99.90
18456;DHT22;9357;49.900;8.208;2023-05-10T08:22:46;17.10;99.90
18456;DHT22;9357;49.900;8.208;2023-05-10T08:24:22;17.00;99.90
18456;DHT22;9357;49.900;8.208;2023-05-10T08:25:57;17.10;99.90
18456;DHT22;9357;49.900;8.208;2023-05-10T08:27:30;17.10;99.90
18456;DHT22;9357;49.900;8.208;2023-05-10T08:29:03;17.10;99.90
18456;DHT22;9357;49.900;8.208;2023-05-10T08:30:35;17.10;99.90
18456;DHT22;9357;49.900;8.208;2023-05-10T08:32:08;17.10;99.90
18456;DHT22;9357;49.900;8.208;2023-05-10T08:33:41;17.20;99.90
18456;DHT22;9357;49.900;8.208;2023-05-10T08:35:16;17.20;99.90
18456;DHT22;9357;49.900;8.208;2023-05-10T08:36:49;17.30;99.90
18456;DHT22;9357;49.900;8.208;2023-05-10T08:38:22;17.40;99.90
18456;DHT22;9357;49.900;8.208;2023-05-10T08:39:55;17.40;99.90
18456;DHT22;9357;49.900;8.208;2023-05-10T08:41:28;17.40;99.90
18456;DHT22;9357;49.900;8.208;2023-05-10T08:43:05;17.50;99.90
18456;DHT22;9357;49.900;8.208;2023-05-10T08:44:38;17.50;99.90
18456;DHT22;9357;49.900;8.208;2023-05-10T08:46:15;17.50;99.90
18456;DHT22;9357;49.900;8.208;2023-05-10T08:47:48;17.50;99.90
18456;DHT22;9357;49.900;8.208;2023-05-10T08:49:22;17.50;99.90
18456;DHT22;9357;49.900;8.208;2023-05-10T08:50:58;17.50;99.90
18456;DHT22;9357;49.900;8.208;2023-05-10T08:52:36;17.50;99.90
18456;DHT22;9357;49.900;8.208;2023-05-10T08:54:10;17.50;99.90
18456;DHT22;9357;49.900;8.208;2023-05-10T08:55:44;17.40;99.90
18456;DHT22;9357;49.900;8.208;2023-05-10T08:57:17;17.40;99.90
18456;DHT22;9357;49.900;8.208;2023-05-10T08:58:51;17.30;99.90
18456;DHT22;9357;49.900;8.208;2023-05-10T09:00:24;17.30;99.90
18456;DHT22;9357;49.900;8.208;2023-05-10T09:01:58;17.30;99.90
18456;DHT22;9357;49.900;8.208;2023-05-10T09:03:31;17.20;99.90
18456;DHT22;9357;49.900;8.208;2023-05-10T09:05:05;17.20;99.90
18456;DHT22;9357;49.900;8.208;2023-05-10T09:06:39;17.10;99.90
18456;DHT22;9357;49.900;8.208;2023-05-10T09:08:12;17.10;99.90
18456;DHT22;9357;49.900;8.208;2023-05-10T09:09:48;17.10;99.90
18456;DHT22;9357;49.900;8.208;2023-05-10T09:11:21;17.10;99.90
18456;DHT22;9357;49.900;8.208;2023-05-10T09:12:56;17.10;99.90
18456;DHT22;9357;49.900;8.208;2023-05-10T09:14:30;17.10;99.90
18456;DHT22;9357;49.900;8.208;2023-05-10T09:16:05;17.10;99.90
18456;DHT22;9357;49.900;8.208;2023-05-10T09:17:52;17.20;99.90
18456;DHT22;9357;49.900;8.208;2023-05-10T09:19:27;17.30;99.90
18456;DHT22;9357;49.900;8.208;2023-05-10T09:21:00;17.30;99.90
18456;DHT22;9357;49.900;8.208;2023-05-10T09:22:34;17.40;99.90
18456;DHT22;9357;49.900;8.208;2023-05-10T09:24:08;17.40;99.90
18456;DHT22;9357;49.900;8.208;2023-05-10T09:25:41;17.50;99.90
18456;DHT22;9357;49.900;8.208;2023-05-10T09:27:14;17.60;99.90
18456;DHT22;9357;49.900;8.208;2023-05-10T09:28:51;17.60;99.90
18456;DHT22;9357;49.900;8.208;2023-05-10T09:30:26;17.60;99.90
18456;DHT22;9357;49.900;8.208;2023-05-10T09:31:59;17.70;99.90
18456;DHT22;9357;49.900;8.208;2023-05-10T09:33:43;17.70;99.90
18456;DHT22;9357;49.900;8.208;2023-05-10T09:35:17;17.70;99.90
18456;DHT22;9357;49.900;8.208;2023-05-10T09:36:52;17.80;99.90
18456;DHT22;9357;49.900;8.208;2023-05-10T09:38:26;17.80;99.90
18456;DHT22;9357;49.900;8.208;2023-05-10T09:39:59;17.80;99.90
18456;DHT22;9357;49.900;8.208;2023-05-10T09:41:33;17.90;99.90
18456;DHT22;9357;49.900;8.208;2023-05-10T09:43:07;17.90;99.90
18456;DHT22;9357;49.900;8.208;2023-05-10T09:44:40;17.90;99.90
18456;DHT22;9357;49.900;8.208;2023-05-10T09:46:15;17.90;99.90
18456;DHT22;9357;49.900;8.208;2023-05-10T09:47:48;17.90;99.90
18456;DHT22;9357;49.900;8.208;2023-05-10T09:49:22;17.80;99.90
18456;DHT22;9357;49.900;8.208;2023-05-10T09:50:56;17.90;99.90
18456;DHT22;9357;49.900;8.208;2023-05-10T09:52:30;17.90;99.90
18456;DHT22;9357;49.900;8.208;2023-05-10T09:54:11;17.90;99.90
18456;DHT22;9357;49.900;8.208;2023-05-10T09:55:46;17.90;99.90
18456;DHT22;9357;49.900;8.208;2023-05-10T09:57:21;17.80;99.90
18456;DHT22;9357;49.900;8.208;2023-05-10T09:59:02;17.90;99.90
18456;DHT22;9357;49.900;8.208;2023-05-10T10:00:36;17.80;99.90
18456;DHT22;9357;49.900;8.208;2023-05-10T10:02:09;17.90;99.90
18456;DHT22;9357;49.900;8.208;2023-05-10T10:03:42;17.90;99.90
18456;DHT22;9357;49.900;8.208;2023-05-10T10:05:15;17.90;99.90